sensor_id;sensor_type;location;lat;lon;timestamp;P1;durP1;ratioP1;P2;durP2;ratioP2
82125;SDS011;71668;51.400;6.758;2023-07-30T00:01:56;6.73;;;3.60;;
82125;SDS011;71668;51.400;6.758;2023-07-30T00:04:23;4.90;;;2.57;;
82125;SDS011;71668;51.400;6.758;2023-07-30T00:06:50;3.07;;;2.50;;
82125;SDS011;71668;51.400;6.758;2023-07-30T00:09:17;6.03;;;2.80;;
82125;SDS011;71668;51.400;6.758;2023-07-30T00:11:44;5.73;;;2.60;;
82125;SDS011;71668;51.400;6.758;2023-07-30T00:14:10;5.13;;;2.33;;
82125;SDS011;71668;51.400;6.758;2023-07-30T00:16:37;4.77;;;2.70;;
82125;SDS011;71668;51.400;6.758;2023-07-30T00:19:07;5.17;;;2.60;;
82125;SDS011;71668;51.400;6.758;2023-07-30T00:21:34;4.63;;;2.57;;
82125;SDS011;71668;51.400;6.758;2023-07-30T00:24:03;5.03;;;2.60;;
82125;SDS011;71668;51.400;6.758;2023-07-30T00:26:30;4.43;;;2.63;;
82125;SDS011;71668;51.400;6.758;2023-07-30T00:28:57;6.37;;;2.80;;
82125;SDS011;71668;51.400;6.758;2023-07-30T00:31:24;5.07;;;2.83;;
82125;SDS011;71668;51.400;6.758;2023-07-30T00:33:51;5.37;;;3.17;;
82125;SDS011;71668;51.400;6.758;2023-07-30T00:36:18;6.20;;;3.33;;
82125;SDS011;71668;51.400;6.758;2023-07-30T00:38:45;5.47;;;2.97;;
82125;SDS011;71668;51.400;6.758;2023-07-30T00:41:12;5.33;;;3.13;;
82125;SDS011;71668;51.400;6.758;2023-07-30T00:43:39;6.67;;;3.27;;
82125;SDS011;71668;51.400;6.758;2023-07-30T00:46:07;5.13;;;3.47;;
82125;SDS011;71668;51.400;6.758;2023-07-30T00:48:35;6.63;;;3.33;;
82125;SDS011;71668;51.400;6.758;2023-07-30T00:51:03;6.53;;;3.40;;
82125;SDS011;71668;51.400;6.758;2023-07-30T00:53:37;6.90;;;3.47;;
82125;SDS011;71668;51.400;6.758;2023-07-30T00:56:05;9.13;;;3.20;;
82125;SDS011;71668;51.400;6.758;2023-07-30T00:58:32;6.43;;;3.60;;
82125;SDS011;71668;51.400;6.758;2023-07-30T01:00:59;5.43;;;3.33;;
82125;SDS011;71668;51.400;6.758;2023-07-30T01:03:27;5.47;;;2.90;;
82125;SDS011;71668;51.400;6.758;2023-07-30T01:05:54;5.47;;;3.30;;
82125;SDS011;71668;51.400;6.758;2023-07-30T01:08:21;7.03;;;3.13;;
82125;SDS011;71668;51.400;6.758;2023-07-30T01:10:48;5.53;;;2.80;;
82125;SDS011;71668;51.400;6.758;2023-07-30T01:13:16;5.93;;;2.50;;
82125;SDS011;71668;51.400;6.758;2023-07-30T01:15:43;5.60;;;2.80;;
82125;SDS011;71668;51.400;6.758;2023-07-30T01:18:11;6.50;;;2.97;;
82125;SDS011;71668;51.400;6.758;2023-07-30T01:20:38;4.90;;;2.90;;
82125;SDS011;71668;51.400;6.758;2023-07-30T01:23:05;5.17;;;3.07;;
82125;SDS011;71668;51.400;6.758;2023-07-30T01:25:33;6.77;;;4.00;;
82125;SDS011;71668;51.400;6.758;2023-07-30T01:28:04;6.63;;;3.57;;
82125;SDS011;71668;51.400;6.758;2023-07-30T01:30:37;7.83;;;3.70;;
82125;SDS011;71668;51.400;6.758;2023-07-30T01:33:15;4.63;;;3.50;;
82125;SDS011;71668;51.400;6.758;2023-07-30T01:35:42;7.00;;;3.80;;
82125;SDS011;71668;51.400;6.758;2023-07-30T01:38:10;8.30;;;3.60;;
82125;SDS011;71668;51.400;6.758;2023-07-30T01:40:38;6.83;;;3.50;;
82125;SDS011;71668;51.400;6.758;2023-07-30T01:43:06;5.60;;;3.33;;
82125;SDS011;71668;51.400;6.758;2023-07-30T01:45:33;4.13;;;2.87;;
82125;SDS011;71668;51.400;6.758;2023-07-30T01:48:01;5.13;;;3.40;;
82125;SDS011;71668;51.400;6.758;2023-07-30T01:50:28;4.73;;;3.13;;
82125;SDS011;71668;51.400;6.758;2023-07-30T01:52:54;8.77;;;3.60;;
82125;SDS011;71668;51.400;6.758;2023-07-30T01:55:21;6.03;;;3.40;;
82125;SDS011;71668;51.400;6.758;2023-07-30T01:57:48;6.63;;;3.50;;
82125;SDS011;71668;51.400;6.758;2023-07-30T02:00:15;5.57;;;3.30;;
82125;SDS011;71668;51.400;6.758;2023-07-30T02:02:42;7.13;;;4.00;;
82125;SDS011;71668;51.400;6.758;2023-07-30T02:05:09;8.43;;;3.90;;
82125;SDS011;71668;51.400;6.758;2023-07-30T02:07:37;8.33;;;4.57;;
82125;SDS011;71668;51.400;6.758;2023-07-30T02:10:04;6.67;;;4.23;;
82125;SDS011;71668;51.400;6.758;2023-07-30T02:12:32;7.07;;;3.60;;
82125;SDS011;71668;51.400;6.758;2023-07-30T02:14:59;6.87;;;3.37;;
82125;SDS011;71668;51.400;6.758;2023-07-30T02:17:25;8.50;;;3.20;;
82125;SDS011;71668;51.400;6.758;2023-07-30T02:19:52;6.87;;;3.57;;
82125;SDS011;71668;51.400;6.758;2023-07-30T02:22:19;4.87;;;3.37;;
82125;SDS011;71668;51.400;6.758;2023-07-30T02:24:46;7.10;;;3.70;;
82125;SDS011;71668;51.400;6.758;2023-07-30T02:27:13;9.13;;;3.50;;
82125;SDS011;71668;51.400;6.758;2023-07-30T02:29:40;4.30;;;3.50;;
82125;SDS011;71668;51.400;6.758;2023-07-30T02:32:07;7.70;;;3.50;;
82125;SDS011;71668;51.400;6.758;2023-07-30T02:34:34;6.70;;;3.70;;
82125;SDS011;71668;51.400;6.758;2023-07-30T02:37:01;8.83;;;3.53;;
82125;SDS011;71668;51.400;6.758;2023-07-30T02:39:27;7.77;;;3.67;;
82125;SDS011;71668;51.400;6.758;2023-07-30T02:41:54;8.63;;;4.60;;
82125;SDS011;71668;51.400;6.758;2023-07-30T02:44:21;9.20;;;4.27;;
82125;SDS011;71668;51.400;6.758;2023-07-30T02:46:48;7.60;;;4.27;;
82125;SDS011;71668;51.400;6.758;2023-07-30T02:49:15;8.23;;;4.47;;
82125;SDS011;71668;51.400;6.758;2023-07-30T02:51:42;6.90;;;3.87;;
82125;SDS011;71668;51.400;6.758;2023-07-30T02:54:14;7.80;;;3.47;;
82125;SDS011;71668;51.400;6.758;2023-07-30T02:56:47;6.00;;;3.13;;
82125;SDS011;71668;51.400;6.758;2023-07-30T02:59:14;6.07;;;2.90;;
82125;SDS011;71668;51.400;6.758;2023-07-30T03:01:40;6.07;;;3.17;;
82125;SDS011;71668;51.400;6.758;2023-07-30T03:04:08;5.03;;;2.93;;
82125;SDS011;71668;51.400;6.758;2023-07-30T03:06:35;7.27;;;3.30;;
82125;SDS011;71668;51.400;6.758;2023-07-30T03:09:02;5.50;;;3.20;;
82125;SDS011;71668;51.400;6.758;2023-07-30T03:11:29;6.10;;;2.77;;
82125;SDS011;71668;51.400;6.758;2023-07-30T03:13:56;5.47;;;3.10;;
82125;SDS011;71668;51.400;6.758;2023-07-30T03:16:22;6.90;;;3.13;;
82125;SDS011;71668;51.400;6.758;2023-07-30T03:18:49;7.57;;;3.13;;
82125;SDS011;71668;51.400;6.758;2023-07-30T03:21:16;6.27;;;3.00;;
82125;SDS011;71668;51.400;6.758;2023-07-30T03:23:43;4.80;;;2.90;;
82125;SDS011;71668;51.400;6.758;2023-07-30T03:26:11;6.13;;;3.27;;
82125;SDS011;71668;51.400;6.758;2023-07-30T03:28:37;6.70;;;2.97;;
82125;SDS011;71668;51.400;6.758;2023-07-30T03:31:06;7.10;;;3.00;;
82125;SDS011;71668;51.400;6.758;2023-07-30T03:33:33;5.73;;;3.43;;
82125;SDS011;71668;51.400;6.758;2023-07-30T03:36:01;8.87;;;3.90;;
82125;SDS011;71668;51.400;6.758;2023-07-30T03:38:28;7.60;;;4.13;;
82125;SDS011;71668;51.400;6.758;2023-07-30T03:40:55;10.30;;;4.47;;
82125;SDS011;71668;51.400;6.758;2023-07-30T03:43:22;7.57;;;4.20;;
82125;SDS011;71668;51.400;6.758;2023-07-30T03:45:49;6.37;;;3.93;;
82125;SDS011;71668;51.400;6.758;2023-07-30T03:48:16;8.50;;;4.10;;
82125;SDS011;71668;51.400;6.758;2023-07-30T03:50:43;8.53;;;4.07;;
82125;SDS011;71668;51.400;6.758;2023-07-30T03:53:10;7.43;;;4.27;;
82125;SDS011;71668;51.400;6.758;2023-07-30T03:55:37;10.93;;;4.73;;
82125;SDS011;71668;51.400;6.758;2023-07-30T03:58:05;11.53;;;5.20;;
82125;SDS011;71668;51.400;6.758;2023-07-30T04:00:32;10.50;;;4.80;;
82125;SDS011;71668;51.400;6.758;2023-07-30T04:02:59;8.60;;;4.30;;
82125;SDS011;71668;51.400;6.758;2023-07-30T04:05:26;9.33;;;4.30;;
82125;SDS011;71668;51.400;6.758;2023-07-30T04:07:53;9.67;;;4.10;;
82125;SDS011;71668;51.400;6.758;2023-07-30T04:10:20;8.23;;;3.80;;
82125;SDS011;71668;51.400;6.758;2023-07-30T04:12:47;9.10;;;3.60;;
82125;SDS011;71668;51.400;6.758;2023-07-30T04:15:14;5.97;;;3.43;;
82125;SDS011;71668;51.400;6.758;2023-07-30T04:17:42;7.93;;;3.50;;
82125;SDS011;71668;51.400;6.758;2023-07-30T04:20:09;11.87;;;4.67;;
82125;SDS011;71668;51.400;6.758;2023-07-30T04:22:37;11.97;;;4.63;;
82125;SDS011;71668;51.400;6.758;2023-07-30T04:25:04;11.37;;;4.47;;
82125;SDS011;71668;51.400;6.758;2023-07-30T04:27:31;11.70;;;5.10;;
82125;SDS011;71668;51.400;6.758;2023-07-30T04:30:01;11.40;;;5.20;;
82125;SDS011;71668;51.400;6.758;2023-07-30T04:32:28;13.03;;;4.80;;
82125;SDS011;71668;51.400;6.758;2023-07-30T04:34:55;9.60;;;3.67;;
82125;SDS011;71668;51.400;6.758;2023-07-30T04:37:22;7.40;;;3.50;;
82125;SDS011;71668;51.400;6.758;2023-07-30T04:39:51;7.53;;;3.47;;
82125;SDS011;71668;51.400;6.758;2023-07-30T04:42:18;7.93;;;3.60;;
82125;SDS011;71668;51.400;6.758;2023-07-30T04:44:46;8.43;;;3.30;;
82125;SDS011;71668;51.400;6.758;2023-07-30T04:47:15;5.97;;;3.37;;
82125;SDS011;71668;51.400;6.758;2023-07-30T04:49:45;5.97;;;3.03;;
82125;SDS011;71668;51.400;6.758;2023-07-30T04:52:12;8.10;;;3.60;;
82125;SDS011;71668;51.400;6.758;2023-07-30T04:54:39;7.57;;;3.43;;
82125;SDS011;71668;51.400;6.758;2023-07-30T04:57:05;8.13;;;2.90;;
82125;SDS011;71668;51.400;6.758;2023-07-30T04:59:33;7.53;;;3.03;;
82125;SDS011;71668;51.400;6.758;2023-07-30T05:02:02;7.50;;;3.33;;
82125;SDS011;71668;51.400;6.758;2023-07-30T05:04:29;6.83;;;3.40;;
82125;SDS011;71668;51.400;6.758;2023-07-30T05:06:56;8.57;;;3.30;;
82125;SDS011;71668;51.400;6.758;2023-07-30T05:09:23;7.60;;;3.10;;
82125;SDS011;71668;51.400;6.758;2023-07-30T05:11:50;8.03;;;3.10;;
82125;SDS011;71668;51.400;6.758;2023-07-30T05:14:17;7.03;;;3.13;;
82125;SDS011;71668;51.400;6.758;2023-07-30T05:16:43;7.50;;;3.27;;
82125;SDS011;71668;51.400;6.758;2023-07-30T05:19:10;7.10;;;3.00;;
82125;SDS011;71668;51.400;6.758;2023-07-30T05:21:37;8.87;;;3.20;;
82125;SDS011;71668;51.400;6.758;2023-07-30T05:24:05;7.33;;;3.40;;
82125;SDS011;71668;51.400;6.758;2023-07-30T05:26:31;7.67;;;3.07;;
82125;SDS011;71668;51.400;6.758;2023-07-30T05:28:58;9.07;;;3.20;;
82125;SDS011;71668;51.400;6.758;2023-07-30T05:31:25;8.13;;;3.70;;
82125;SDS011;71668;51.400;6.758;2023-07-30T05:33:52;9.00;;;3.67;;
82125;SDS011;71668;51.400;6.758;2023-07-30T05:36:19;9.40;;;4.13;;
82125;SDS011;71668;51.400;6.758;2023-07-30T05:38:47;9.70;;;4.30;;
82125;SDS011;71668;51.400;6.758;2023-07-30T05:41:14;9.10;;;4.17;;
82125;SDS011;71668;51.400;6.758;2023-07-30T05:43:45;9.50;;;4.40;;
82125;SDS011;71668;51.400;6.758;2023-07-30T05:46:12;10.40;;;4.53;;
82125;SDS011;71668;51.400;6.758;2023-07-30T05:48:41;9.43;;;4.10;;
82125;SDS011;71668;51.400;6.758;2023-07-30T05:51:11;9.30;;;3.90;;
82125;SDS011;71668;51.400;6.758;2023-07-30T05:53:38;9.47;;;4.40;;
82125;SDS011;71668;51.400;6.758;2023-07-30T05:56:05;8.57;;;3.40;;
82125;SDS011;71668;51.400;6.758;2023-07-30T05:58:32;5.87;;;2.93;;
82125;SDS011;71668;51.400;6.758;2023-07-30T06:00:58;7.43;;;2.87;;
82125;SDS011;71668;51.400;6.758;2023-07-30T06:03:25;5.87;;;2.67;;
82125;SDS011;71668;51.400;6.758;2023-07-30T06:05:52;8.10;;;2.57;;
82125;SDS011;71668;51.400;6.758;2023-07-30T06:08:19;6.00;;;2.63;;
82125;SDS011;71668;51.400;6.758;2023-07-30T06:10:46;7.23;;;2.60;;
82125;SDS011;71668;51.400;6.758;2023-07-30T06:13:13;7.00;;;2.70;;
82125;SDS011;71668;51.400;6.758;2023-07-30T06:15:40;5.67;;;2.20;;
82125;SDS011;71668;51.400;6.758;2023-07-30T06:18:12;7.00;;;2.63;;
82125;SDS011;71668;51.400;6.758;2023-07-30T06:20:39;5.00;;;2.33;;
82125;SDS011;71668;51.400;6.758;2023-07-30T06:23:06;5.40;;;2.40;;
82125;SDS011;71668;51.400;6.758;2023-07-30T06:25:33;6.87;;;2.37;;
82125;SDS011;71668;51.400;6.758;2023-07-30T06:27:59;7.77;;;2.40;;
82125;SDS011;71668;51.400;6.758;2023-07-30T06:30:26;7.37;;;2.60;;
82125;SDS011;71668;51.400;6.758;2023-07-30T06:32:53;6.30;;;2.30;;
82125;SDS011;71668;51.400;6.758;2023-07-30T06:35:20;6.90;;;2.10;;
82125;SDS011;71668;51.400;6.758;2023-07-30T06:37:47;7.80;;;2.23;;
82125;SDS011;71668;51.400;6.758;2023-07-30T06:40:14;10.07;;;2.63;;
82125;SDS011;71668;51.400;6.758;2023-07-30T06:42:41;5.73;;;2.30;;
82125;SDS011;71668;51.400;6.758;2023-07-30T06:45:08;6.87;;;2.10;;
82125;SDS011;71668;51.400;6.758;2023-07-30T06:47:35;5.43;;;2.07;;
82125;SDS011;71668;51.400;6.758;2023-07-30T06:50:02;5.63;;;2.10;;
82125;SDS011;71668;51.400;6.758;2023-07-30T06:52:30;5.67;;;2.03;;
82125;SDS011;71668;51.400;6.758;2023-07-30T06:54:57;5.13;;;2.10;;
82125;SDS011;71668;51.400;6.758;2023-07-30T06:57:23;6.63;;;2.30;;
82125;SDS011;71668;51.400;6.758;2023-07-30T06:59:50;6.03;;;1.93;;
82125;SDS011;71668;51.400;6.758;2023-07-30T07:02:17;7.30;;;2.50;;
82125;SDS011;71668;51.400;6.758;2023-07-30T07:04:44;6.53;;;2.40;;
82125;SDS011;71668;51.400;6.758;2023-07-30T07:07:11;7.37;;;2.57;;
82125;SDS011;71668;51.400;6.758;2023-07-30T07:09:38;7.33;;;2.30;;
82125;SDS011;71668;51.400;6.758;2023-07-30T07:12:05;5.97;;;2.40;;
82125;SDS011;71668;51.400;6.758;2023-07-30T07:14:33;7.93;;;2.57;;
82125;SDS011;71668;51.400;6.758;2023-07-30T07:16:59;9.07;;;2.60;;
82125;SDS011;71668;51.400;6.758;2023-07-30T07:19:27;5.27;;;2.40;;
82125;SDS011;71668;51.400;6.758;2023-07-30T07:21:54;7.07;;;2.43;;
82125;SDS011;71668;51.400;6.758;2023-07-30T07:24:20;9.70;;;2.87;;
82125;SDS011;71668;51.400;6.758;2023-07-30T07:26:47;8.53;;;2.50;;
82125;SDS011;71668;51.400;6.758;2023-07-30T07:29:17;7.27;;;2.40;;
82125;SDS011;71668;51.400;6.758;2023-07-30T07:31:44;7.07;;;2.77;;
82125;SDS011;71668;51.400;6.758;2023-07-30T07:34:11;7.27;;;2.80;;
82125;SDS011;71668;51.400;6.758;2023-07-30T07:36:38;6.90;;;2.70;;
82125;SDS011;71668;51.400;6.758;2023-07-30T07:39:05;6.67;;;2.67;;
82125;SDS011;71668;51.400;6.758;2023-07-30T07:41:32;9.17;;;3.00;;
82125;SDS011;71668;51.400;6.758;2023-07-30T07:43:59;8.37;;;3.13;;
82125;SDS011;71668;51.400;6.758;2023-07-30T07:46:26;8.43;;;3.00;;
82125;SDS011;71668;51.400;6.758;2023-07-30T07:48:54;7.43;;;2.80;;
82125;SDS011;71668;51.400;6.758;2023-07-30T07:51:21;8.50;;;3.10;;
82125;SDS011;71668;51.400;6.758;2023-07-30T07:53:48;9.47;;;2.77;;
82125;SDS011;71668;51.400;6.758;2023-07-30T07:56:27;6.50;;;2.80;;
82125;SDS011;71668;51.400;6.758;2023-07-30T07:58:53;8.33;;;2.70;;
82125;SDS011;71668;51.400;6.758;2023-07-30T08:01:20;6.60;;;2.87;;
82125;SDS011;71668;51.400;6.758;2023-07-30T08:03:47;7.87;;;3.00;;
82125;SDS011;71668;51.400;6.758;2023-07-30T08:06:14;8.50;;;2.93;;
82125;SDS011;71668;51.400;6.758;2023-07-30T08:08:41;8.13;;;2.87;;
82125;SDS011;71668;51.400;6.758;2023-07-30T08:11:12;11.70;;;3.17;;
82125;SDS011;71668;51.400;6.758;2023-07-30T08:13:39;9.03;;;2.90;;
82125;SDS011;71668;51.400;6.758;2023-07-30T08:16:06;4.90;;;2.47;;
82125;SDS011;71668;51.400;6.758;2023-07-30T08:18:33;8.67;;;2.90;;
82125;SDS011;71668;51.400;6.758;2023-07-30T08:21:00;8.07;;;2.70;;
82125;SDS011;71668;51.400;6.758;2023-07-30T08:23:27;7.80;;;2.63;;
82125;SDS011;71668;51.400;6.758;2023-07-30T08:25:53;10.30;;;3.30;;
82125;SDS011;71668;51.400;6.758;2023-07-30T08:28:20;10.40;;;3.33;;
82125;SDS011;71668;51.400;6.758;2023-07-30T08:30:47;7.40;;;3.13;;
82125;SDS011;71668;51.400;6.758;2023-07-30T08:33:14;6.73;;;2.77;;
82125;SDS011;71668;51.400;6.758;2023-07-30T08:35:41;7.10;;;2.83;;
82125;SDS011;71668;51.400;6.758;2023-07-30T08:38:08;9.73;;;3.33;;
82125;SDS011;71668;51.400;6.758;2023-07-30T08:40:35;7.47;;;3.10;;
82125;SDS011;71668;51.400;6.758;2023-07-30T08:43:04;7.63;;;2.80;;
82125;SDS011;71668;51.400;6.758;2023-07-30T08:45:33;11.53;;;2.90;;
82125;SDS011;71668;51.400;6.758;2023-07-30T08:48:00;9.97;;;3.33;;
82125;SDS011;71668;51.400;6.758;2023-07-30T08:50:27;8.27;;;2.53;;
82125;SDS011;71668;51.400;6.758;2023-07-30T08:52:55;8.87;;;2.90;;
82125;SDS011;71668;51.400;6.758;2023-07-30T08:55:24;12.43;;;2.90;;
82125;SDS011;71668;51.400;6.758;2023-07-30T08:57:53;7.10;;;2.90;;
82125;SDS011;71668;51.400;6.758;2023-07-30T09:00:21;7.40;;;3.00;;
82125;SDS011;71668;51.400;6.758;2023-07-30T09:02:52;9.57;;;2.90;;
82125;SDS011;71668;51.400;6.758;2023-07-30T09:05:21;9.27;;;3.07;;
82125;SDS011;71668;51.400;6.758;2023-07-30T09:07:49;9.23;;;3.43;;
82125;SDS011;71668;51.400;6.758;2023-07-30T09:10:16;8.37;;;2.83;;
82125;SDS011;71668;51.400;6.758;2023-07-30T09:12:43;9.77;;;2.93;;
82125;SDS011;71668;51.400;6.758;2023-07-30T09:15:13;8.57;;;3.08;;
82125;SDS011;71668;51.400;6.758;2023-07-30T09:17:40;10.85;;;3.35;;
82125;SDS011;71668;51.400;6.758;2023-07-30T09:20:08;6.07;;;2.80;;
82125;SDS011;71668;51.400;6.758;2023-07-30T09:22:36;8.63;;;3.42;;
82125;SDS011;71668;51.400;6.758;2023-07-30T09:25:06;6.57;;;3.08;;
82125;SDS011;71668;51.400;6.758;2023-07-30T09:27:33;7.95;;;2.83;;
82125;SDS011;71668;51.400;6.758;2023-07-30T09:30:01;6.60;;;3.00;;
82125;SDS011;71668;51.400;6.758;2023-07-30T09:32:32;9.48;;;3.25;;
82125;SDS011;71668;51.400;6.758;2023-07-30T09:35:03;6.25;;;2.90;;
82125;SDS011;71668;51.400;6.758;2023-07-30T09:37:39;9.10;;;3.13;;
82125;SDS011;71668;51.400;6.758;2023-07-30T09:40:07;6.40;;;2.58;;
82125;SDS011;71668;51.400;6.758;2023-07-30T09:42:36;9.30;;;3.53;;
82125;SDS011;71668;51.400;6.758;2023-07-30T09:45:06;8.27;;;2.83;;
82125;SDS011;71668;51.400;6.758;2023-07-30T09:47:37;8.50;;;2.92;;
82125;SDS011;71668;51.400;6.758;2023-07-30T09:50:04;10.55;;;3.30;;
82125;SDS011;71668;51.400;6.758;2023-07-30T09:52:32;8.60;;;3.10;;
82125;SDS011;71668;51.400;6.758;2023-07-30T09:54:59;7.07;;;2.70;;
82125;SDS011;71668;51.400;6.758;2023-07-30T09:57:28;6.80;;;2.50;;
82125;SDS011;71668;51.400;6.758;2023-07-30T09:59:55;5.25;;;2.53;;
82125;SDS011;71668;51.400;6.758;2023-07-30T10:02:23;6.82;;;3.13;;
82125;SDS011;71668;51.400;6.758;2023-07-30T10:04:51;9.73;;;3.80;;
82125;SDS011;71668;51.400;6.758;2023-07-30T10:07:23;9.45;;;3.60;;
82125;SDS011;71668;51.400;6.758;2023-07-30T10:09:53;8.13;;;3.47;;
82125;SDS011;71668;51.400;6.758;2023-07-30T10:12:31;7.38;;;3.38;;
82125;SDS011;71668;51.400;6.758;2023-07-30T10:15:07;7.47;;;3.40;;
82125;SDS011;71668;51.400;6.758;2023-07-30T10:17:34;7.60;;;2.85;;
82125;SDS011;71668;51.400;6.758;2023-07-30T10:20:20;5.60;;;2.40;;
82125;SDS011;71668;51.400;6.758;2023-07-30T10:22:53;7.50;;;3.63;;
82125;SDS011;71668;51.400;6.758;2023-07-30T10:25:22;6.13;;;2.40;;
82125;SDS011;71668;51.400;6.758;2023-07-30T10:28:10;7.90;;;4.23;;
82125;SDS011;71668;51.400;6.758;2023-07-30T10:30:59;7.10;;;3.70;;
82125;SDS011;71668;51.400;6.758;2023-07-30T10:33:46;9.13;;;2.43;;
82125;SDS011;71668;51.400;6.758;2023-07-30T10:36:18;5.10;;;2.70;;
82125;SDS011;71668;51.400;6.758;2023-07-30T10:39:20;6.22;;;2.45;;
82125;SDS011;71668;51.400;6.758;2023-07-30T10:41:57;4.47;;;2.22;;
82125;SDS011;71668;51.400;6.758;2023-07-30T10:44:33;4.03;;;1.90;;
82125;SDS011;71668;51.400;6.758;2023-07-30T10:47:02;7.35;;;2.58;;
82125;SDS011;71668;51.400;6.758;2023-07-30T10:49:35;4.30;;;2.00;;
82125;SDS011;71668;51.400;6.758;2023-07-30T10:52:09;5.95;;;2.13;;
82125;SDS011;71668;51.400;6.758;2023-07-30T10:54:36;5.60;;;2.17;;
82125;SDS011;71668;51.400;6.758;2023-07-30T10:57:03;5.18;;;2.10;;
82125;SDS011;71668;51.400;6.758;2023-07-30T10:59:34;4.75;;;2.33;;
82125;SDS011;71668;51.400;6.758;2023-07-30T11:02:04;6.55;;;2.20;;
82125;SDS011;71668;51.400;6.758;2023-07-30T11:04:35;6.32;;;2.40;;
82125;SDS011;71668;51.400;6.758;2023-07-30T11:07:07;6.57;;;2.75;;
82125;SDS011;71668;51.400;6.758;2023-07-30T11:09:36;5.73;;;2.30;;
82125;SDS011;71668;51.400;6.758;2023-07-30T11:12:03;6.13;;;2.23;;
82125;SDS011;71668;51.400;6.758;2023-07-30T11:14:35;7.30;;;2.43;;
82125;SDS011;71668;51.400;6.758;2023-07-30T11:17:02;6.80;;;2.10;;
82125;SDS011;71668;51.400;6.758;2023-07-30T11:19:29;4.33;;;1.70;;
82125;SDS011;71668;51.400;6.758;2023-07-30T11:21:56;5.47;;;2.20;;
82125;SDS011;71668;51.400;6.758;2023-07-30T11:24:36;6.70;;;2.90;;
82125;SDS011;71668;51.400;6.758;2023-07-30T11:27:06;5.83;;;2.83;;
82125;SDS011;71668;51.400;6.758;2023-07-30T11:29:36;6.90;;;3.23;;
82125;SDS011;71668;51.400;6.758;2023-07-30T11:32:03;6.57;;;2.63;;
82125;SDS011;71668;51.400;6.758;2023-07-30T11:34:32;5.93;;;2.40;;
82125;SDS011;71668;51.400;6.758;2023-07-30T11:37:04;4.23;;;2.10;;
82125;SDS011;71668;51.400;6.758;2023-07-30T11:39:32;6.47;;;2.20;;
82125;SDS011;71668;51.400;6.758;2023-07-30T11:41:59;6.43;;;2.40;;
82125;SDS011;71668;51.400;6.758;2023-07-30T11:44:31;8.57;;;2.63;;
82125;SDS011;71668;51.400;6.758;2023-07-30T11:46:58;6.37;;;2.57;;
82125;SDS011;71668;51.400;6.758;2023-07-30T11:49:25;5.90;;;2.07;;
82125;SDS011;71668;51.400;6.758;2023-07-30T11:52:03;3.73;;;1.70;;
82125;SDS011;71668;51.400;6.758;2023-07-30T11:54:35;6.83;;;2.23;;
82125;SDS011;71668;51.400;6.758;2023-07-30T11:57:02;5.83;;;2.30;;
82125;SDS011;71668;51.400;6.758;2023-07-30T11:59:34;7.10;;;2.20;;
82125;SDS011;71668;51.400;6.758;2023-07-30T12:02:07;5.37;;;1.90;;
82125;SDS011;71668;51.400;6.758;2023-07-30T12:04:45;6.33;;;2.00;;
82125;SDS011;71668;51.400;6.758;2023-07-30T12:10:46;4.70;;;1.77;;
82125;SDS011;71668;51.400;6.758;2023-07-30T12:13:19;5.60;;;2.10;;
82125;SDS011;71668;51.400;6.758;2023-07-30T12:15:53;3.40;;;1.70;;
82125;SDS011;71668;51.400;6.758;2023-07-30T12:18:21;3.90;;;1.87;;
82125;SDS011;71668;51.400;6.758;2023-07-30T12:20:50;4.53;;;1.80;;
82125;SDS011;71668;51.400;6.758;2023-07-30T12:23:18;5.27;;;2.13;;
82125;SDS011;71668;51.400;6.758;2023-07-30T12:25:45;7.10;;;1.93;;
82125;SDS011;71668;51.400;6.758;2023-07-30T12:28:13;3.77;;;1.90;;
82125;SDS011;71668;51.400;6.758;2023-07-30T12:30:40;5.07;;;2.27;;
82125;SDS011;71668;51.400;6.758;2023-07-30T12:33:07;3.90;;;2.00;;
82125;SDS011;71668;51.400;6.758;2023-07-30T12:35:34;5.37;;;3.10;;
82125;SDS011;71668;51.400;6.758;2023-07-30T12:38:01;18.47;;;11.10;;
82125;SDS011;71668;51.400;6.758;2023-07-30T12:40:28;20.90;;;10.73;;
82125;SDS011;71668;51.400;6.758;2023-07-30T12:43:04;12.50;;;6.10;;
82125;SDS011;71668;51.400;6.758;2023-07-30T12:45:31;12.20;;;4.57;;
82125;SDS011;71668;51.400;6.758;2023-07-30T12:47:58;8.37;;;3.57;;
82125;SDS011;71668;51.400;6.758;2023-07-30T12:50:25;5.40;;;2.00;;
82125;SDS011;71668;51.400;6.758;2023-07-30T12:52:52;5.23;;;1.73;;
82125;SDS011;71668;51.400;6.758;2023-07-30T12:55:19;3.70;;;1.90;;
82125;SDS011;71668;51.400;6.758;2023-07-30T12:57:50;5.93;;;2.00;;
82125;SDS011;71668;51.400;6.758;2023-07-30T13:00:17;4.97;;;1.70;;
82125;SDS011;71668;51.400;6.758;2023-07-30T13:02:51;2.73;;;1.53;;
82125;SDS011;71668;51.400;6.758;2023-07-30T13:05:28;5.17;;;1.90;;
82125;SDS011;71668;51.400;6.758;2023-07-30T13:07:55;3.60;;;1.70;;
82125;SDS011;71668;51.400;6.758;2023-07-30T13:10:22;3.93;;;2.00;;
82125;SDS011;71668;51.400;6.758;2023-07-30T13:12:49;3.37;;;1.80;;
82125;SDS011;71668;51.400;6.758;2023-07-30T13:15:22;6.17;;;2.30;;
82125;SDS011;71668;51.400;6.758;2023-07-30T13:17:48;6.23;;;2.00;;
82125;SDS011;71668;51.400;6.758;2023-07-30T13:20:15;3.90;;;1.87;;
82125;SDS011;71668;51.400;6.758;2023-07-30T13:22:45;5.63;;;2.00;;
82125;SDS011;71668;51.400;6.758;2023-07-30T13:25:12;6.27;;;4.17;;
82125;SDS011;71668;51.400;6.758;2023-07-30T13:27:39;9.00;;;4.07;;
82125;SDS011;71668;51.400;6.758;2023-07-30T13:30:06;5.23;;;1.87;;
82125;SDS011;71668;51.400;6.758;2023-07-30T13:32:33;4.90;;;2.20;;
82125;SDS011;71668;51.400;6.758;2023-07-30T13:35:12;4.20;;;1.93;;
82125;SDS011;71668;51.400;6.758;2023-07-30T13:37:39;3.87;;;1.67;;
82125;SDS011;71668;51.400;6.758;2023-07-30T13:40:06;5.03;;;2.00;;
82125;SDS011;71668;51.400;6.758;2023-07-30T13:42:34;3.90;;;2.07;;
82125;SDS011;71668;51.400;6.758;2023-07-30T13:45:00;5.83;;;2.37;;
82125;SDS011;71668;51.400;6.758;2023-07-30T13:47:27;6.63;;;2.07;;
82125;SDS011;71668;51.400;6.758;2023-07-30T13:49:55;4.27;;;1.70;;
82125;SDS011;71668;51.400;6.758;2023-07-30T13:52:22;4.83;;;1.90;;
82125;SDS011;71668;51.400;6.758;2023-07-30T13:54:49;5.17;;;2.10;;
82125;SDS011;71668;51.400;6.758;2023-07-30T13:57:23;3.27;;;1.57;;
82125;SDS011;71668;51.400;6.758;2023-07-30T13:59:51;6.27;;;2.00;;
82125;SDS011;71668;51.400;6.758;2023-07-30T14:02:20;4.03;;;1.90;;
82125;SDS011;71668;51.400;6.758;2023-07-30T14:04:47;4.33;;;1.97;;
82125;SDS011;71668;51.400;6.758;2023-07-30T14:07:14;3.97;;;1.80;;
82125;SDS011;71668;51.400;6.758;2023-07-30T14:09:41;6.10;;;2.10;;
82125;SDS011;71668;51.400;6.758;2023-07-30T14:12:11;3.87;;;1.97;;
82125;SDS011;71668;51.400;6.758;2023-07-30T14:14:38;5.60;;;1.90;;
82125;SDS011;71668;51.400;6.758;2023-07-30T14:17:05;5.73;;;2.30;;
82125;SDS011;71668;51.400;6.758;2023-07-30T14:19:33;5.50;;;2.57;;
82125;SDS011;71668;51.400;6.758;2023-07-30T14:22:00;4.20;;;1.97;;
82125;SDS011;71668;51.400;6.758;2023-07-30T14:24:28;4.73;;;1.93;;
82125;SDS011;71668;51.400;6.758;2023-07-30T14:26:55;4.40;;;1.80;;
82125;SDS011;71668;51.400;6.758;2023-07-30T14:29:22;4.30;;;1.90;;
82125;SDS011;71668;51.400;6.758;2023-07-30T14:31:49;6.57;;;2.47;;
82125;SDS011;71668;51.400;6.758;2023-07-30T14:34:16;10.57;;;7.37;;
82125;SDS011;71668;51.400;6.758;2023-07-30T14:36:43;9.83;;;6.20;;
82125;SDS011;71668;51.400;6.758;2023-07-30T14:39:09;5.70;;;3.63;;
82125;SDS011;71668;51.400;6.758;2023-07-30T14:41:37;4.30;;;2.20;;
82125;SDS011;71668;51.400;6.758;2023-07-30T14:44:06;4.17;;;1.83;;
82125;SDS011;71668;51.400;6.758;2023-07-30T14:46:33;3.37;;;1.73;;
82125;SDS011;71668;51.400;6.758;2023-07-30T14:49:01;4.57;;;2.00;;
82125;SDS011;71668;51.400;6.758;2023-07-30T14:51:28;4.50;;;2.20;;
82125;SDS011;71668;51.400;6.758;2023-07-30T14:53:55;4.97;;;1.87;;
82125;SDS011;71668;51.400;6.758;2023-07-30T14:56:22;6.07;;;2.07;;